English Village, Alabama
Current Conditions -  °F | °C
As of 10:53 AM on Friday 24 Oct 2014 (Local Time) from KBHM Reporting Station
Few Clouds Few Clouds  
Wind Chill: 66°   Ceiling: Unl
Heat Index: 66°   Visibility: 10mi
Dew Point: 45°   Wind: 10mph
Humidity: 47%   Direction: 10°N
Pressure: 30.14"   Gusts: NA
Location:  33.4888°N, 86.7354°W
Report Text: KBHM 241553Z 01009KT 10SM FEW250 19/07 A3014 RMK AO2 SLP201 T01890072
Loading
Personal Weather Stations






























Interactive Weather Map
Tropical Storm Tracking
New forecast layout! Learn more

10-Day Weather Forecast

Advertisements
Track Severe Weather on mobile